Time;durP1;ratioP1;P1;durP2;ratioP2;P2;SDS_P1;SDS_P2;PMS_P1;PMS_P2;Temp;Humidity;BMP_temperature;BMP_pressure;BME280_temperature;BME280_humidity;BME280_pressure;Samples;Min_cycle;Max_cycle;Signal;HPM_P1;HPM_P2
2021/08/31 00:01:59;;;;;;;14.43;8.55;;;14.20;99.90;;;;;;4998490;28;20030;-87
2021/08/31 00:04:24;;;;;;;13.40;8.13;;;14.60;99.90;;;;;;5000936;28;20037;-88
2021/08/31 00:06:50;;;;;;;13.40;8.32;;;14.00;99.90;;;;;;5013575;28;20029;-88
2021/08/31 00:09:16;;;;;;;11.75;7.80;;;14.10;99.90;;;;;;5003302;28;20615;-88
2021/08/31 00:11:44;;;;;;;12.95;8.27;;;14.30;99.90;;;;;;4983643;28;20026;-88
2021/08/31 00:14:11;;;;;;;13.82;7.97;;;14.70;99.90;;;;;;5000131;28;20022;-88
2021/08/31 00:16:36;;;;;;;12.93;7.50;;;14.20;99.90;;;;;;5002694;28;20021;-87
2021/08/31 00:19:02;;;;;;;12.88;7.95;;;14.10;99.90;;;;;;5021504;28;20022;-88
2021/08/31 00:21:28;;;;;;;13.70;7.20;;;14.10;99.90;;;;;;5012099;28;20065;-88
2021/08/31 00:23:53;;;;;;;11.25;7.57;;;14.80;99.90;;;;;;5007789;28;20129;-88
2021/08/31 00:26:19;;;;;;;12.60;8.00;;;14.10;99.90;;;;;;5002702;28;20034;-88
2021/08/31 00:28:45;;;;;;;12.50;7.25;;;13.80;99.90;;;;;;5000362;28;20026;-87
2021/08/31 00:31:10;;;;;;;13.85;8.23;;;14.20;99.90;;;;;;5001411;28;20034;-88
2021/08/31 00:33:36;;;;;;;11.07;7.15;;;14.10;99.90;;;;;;4984560;28;20494;-88
2021/08/31 00:36:04;;;;;;;11.15;7.47;;;13.60;99.90;;;;;;4983099;28;20034;-88
2021/08/31 00:38:31;;;;;;;14.63;7.18;;;14.20;99.90;;;;;;5016414;28;20053;-89
2021/08/31 00:40:57;;;;;;;13.05;7.55;;;13.70;99.90;;;;;;5019760;28;20029;-89
2021/08/31 00:43:23;;;;;;;12.07;8.07;;;14.00;99.90;;;;;;5004342;28;20030;-87
2021/08/31 00:45:49;;;;;;;11.95;7.45;;;14.90;99.90;;;;;;5019052;28;20095;-87
2021/08/31 00:48:22;;;;;;;14.02;8.57;;;14.90;99.90;;;;;;5019785;28;20025;-88
2021/08/31 00:50:50;;;;;;;14.63;9.70;;;14.10;99.90;;;;;;5020289;28;20060;-87
2021/08/31 00:53:16;;;;;;;14.32;9.05;;;14.20;99.90;;;;;;5016850;28;20030;-88
2021/08/31 00:55:42;;;;;;;13.55;9.23;;;14.70;99.90;;;;;;5020001;28;20033;-87
2021/08/31 00:58:08;;;;;;;15.63;10.00;;;14.10;99.90;;;;;;4998503;28;20406;-88
2021/08/31 01:00:34;;;;;;;13.93;9.35;;;14.10;99.90;;;;;;5016260;28;20048;-88
2021/08/31 01:02:59;;;;;;;14.95;9.85;;;14.10;99.90;;;;;;4999295;28;20023;-88
2021/08/31 01:05:29;;;;;;;14.85;9.70;;;14.30;99.90;;;;;;5000176;28;20022;-88
2021/08/31 01:07:55;;;;;;;14.90;9.57;;;14.20;99.90;;;;;;5014345;28;20486;-88
2021/08/31 01:10:21;;;;;;;17.98;11.50;;;14.20;99.90;;;;;;5012035;28;20092;-88
2021/08/31 01:12:46;;;;;;;17.15;10.82;;;15.40;99.90;;;;;;4997716;28;20026;-89
2021/08/31 01:15:13;;;;;;;16.45;10.75;;;14.20;99.90;;;;;;4997636;28;20466;-88
2021/08/31 01:17:38;;;;;;;18.10;11.43;;;14.20;99.90;;;;;;4999048;28;20026;-88
2021/08/31 01:20:04;;;;;;;18.50;11.43;;;14.10;99.90;;;;;;4995407;28;20037;-89
2021/08/31 01:22:31;;;;;;;18.30;10.80;;;14.10;99.90;;;;;;5020080;28;20392;-89
2021/08/31 01:25:02;;;;;;;18.48;11.98;;;15.30;99.90;;;;;;5019836;28;20451;-87
2021/08/31 01:27:28;;;;;;;18.15;11.27;;;14.70;99.90;;;;;;5018905;28;20030;-89
2021/08/31 01:29:57;;;;;;;20.30;11.85;;;14.40;99.90;;;;;;5004493;28;20056;-88
2021/08/31 01:32:22;;;;;;;19.42;12.15;;;14.10;99.90;;;;;;5001725;28;20053;-89
2021/08/31 01:34:48;;;;;;;19.70;12.57;;;14.10;99.90;;;;;;5018923;28;20026;-90
2021/08/31 01:37:14;;;;;;;20.30;12.90;;;14.30;99.90;;;;;;5014318;28;20041;-88
2021/08/31 01:39:40;;;;;;;19.17;11.70;;;14.10;99.90;;;;;;4999023;28;20050;-89
2021/08/31 01:42:06;;;;;;;17.83;11.15;;;14.10;99.90;;;;;;4998104;28;20731;-88
2021/08/31 01:44:32;;;;;;;19.05;11.13;;;14.10;99.90;;;;;;4998096;28;20029;-88
2021/08/31 01:46:58;;;;;;;19.02;11.45;;;14.50;99.90;;;;;;5013685;28;20026;-88
2021/08/31 01:49:23;;;;;;;19.17;11.90;;;13.90;99.90;;;;;;5018516;28;20075;-88
2021/08/31 01:51:49;;;;;;;17.00;12.10;;;14.10;99.90;;;;;;5018815;28;20030;-87
2021/08/31 01:54:15;;;;;;;18.25;12.10;;;14.50;99.90;;;;;;5006902;28;20026;-89
2021/08/31 01:56:41;;;;;;;20.13;12.20;;;14.10;99.90;;;;;;5000141;28;20026;-89
2021/08/31 01:59:08;;;;;;;20.95;12.23;;;14.10;99.90;;;;;;4982687;28;20026;-88
2021/08/31 02:01:33;;;;;;;22.13;12.43;;;15.40;99.90;;;;;;5001356;28;20134;-88
2021/08/31 02:03:59;;;;;;;23.05;12.63;;;14.10;99.90;;;;;;5019691;28;20065;-89
2021/08/31 02:06:25;;;;;;;21.73;13.68;;;14.60;99.90;;;;;;5019943;28;20034;-89
2021/08/31 02:08:51;;;;;;;18.73;12.15;;;14.10;99.90;;;;;;5018448;28;20030;-88
2021/08/31 02:11:18;;;;;;;18.50;12.52;;;14.40;99.90;;;;;;5014995;28;20471;-89
2021/08/31 02:13:44;;;;;;;22.58;13.10;;;14.10;99.90;;;;;;5001028;28;20030;-88
2021/08/31 02:16:10;;;;;;;21.27;12.65;;;15.10;99.90;;;;;;4984797;28;20122;-87
2021/08/31 02:18:42;;;;;;;21.33;12.75;;;14.00;99.90;;;;;;5003888;28;20034;-89
2021/08/31 02:21:09;;;;;;;19.50;11.43;;;14.40;99.90;;;;;;5001222;28;20042;-88
2021/08/31 02:23:48;;;;;;;20.98;12.05;;;14.40;99.90;;;;;;5003408;28;20027;-88
2021/08/31 02:26:13;;;;;;;18.85;12.23;;;15.10;99.90;;;;;;5004315;28;20022;-89
2021/08/31 02:28:41;;;;;;;19.55;12.40;;;15.00;99.90;;;;;;5011348;28;20049;-88
2021/08/31 02:31:10;;;;;;;20.60;11.88;;;13.80;99.90;;;;;;5022792;28;20029;-89
2021/08/31 02:33:36;;;;;;;20.00;12.65;;;14.30;99.90;;;;;;5005392;28;20501;-88
2021/08/31 02:36:01;;;;;;;20.55;11.48;;;14.70;99.90;;;;;;5003236;28;20030;-89
2021/08/31 02:38:27;;;;;;;17.23;10.82;;;14.00;99.90;;;;;;5002830;28;20053;-89
2021/08/31 02:40:56;;;;;;;18.63;11.30;;;14.10;99.90;;;;;;4987810;28;20031;-88
2021/08/31 02:43:21;;;;;;;17.00;10.73;;;14.00;99.90;;;;;;5036581;28;20029;-88
2021/08/31 02:45:47;;;;;;;16.83;10.13;;;13.60;99.90;;;;;;5039472;28;20533;-89
2021/08/31 02:48:13;;;;;;;17.38;11.15;;;13.90;99.90;;;;;;5043837;28;20064;-86
2021/08/31 02:50:38;;;;;;;18.67;11.48;;;14.30;99.90;;;;;;5022847;28;20033;-88
2021/08/31 02:53:04;;;;;;;17.20;10.43;;;15.30;99.90;;;;;;5014143;28;20057;-89
2021/08/31 02:55:30;;;;;;;17.85;11.65;;;14.00;99.90;;;;;;5001752;28;20026;-89
2021/08/31 02:57:56;;;;;;;19.70;11.80;;;14.20;99.90;;;;;;5000613;28;20118;-89
2021/08/31 03:00:42;;;;;;;17.85;10.68;;;13.70;99.90;;;;;;5002412;28;20030;-87
2021/08/31 03:03:09;;;;;;;19.30;11.52;;;13.90;99.90;;;;;;5001494;28;20067;-89
2021/08/31 03:05:35;;;;;;;19.90;11.68;;;13.90;99.90;;;;;;4985494;28;20026;-87
2021/08/31 03:08:04;;;;;;;18.23;11.85;;;13.90;99.90;;;;;;4984611;28;20022;-88
2021/08/31 03:10:29;;;;;;;18.63;10.88;;;13.90;99.90;;;;;;5002069;28;20026;-88
2021/08/31 03:12:55;;;;;;;19.95;11.55;;;13.90;99.90;;;;;;5001239;28;20038;-89
2021/08/31 03:15:21;;;;;;;16.63;10.88;;;13.80;99.90;;;;;;5000509;28;20081;-89
2021/08/31 03:17:51;;;;;;;18.50;12.00;;;14.90;99.90;;;;;;5000696;28;20030;-88
2021/08/31 03:20:20;;;;;;;17.98;11.55;;;15.00;99.90;;;;;;5000858;28;20038;-88
2021/08/31 03:22:49;;;;;;;19.10;11.93;;;13.80;99.90;;;;;;4990121;28;20533;-88
2021/08/31 03:25:15;;;;;;;21.23;10.70;;;14.10;99.90;;;;;;4981352;28;20026;-88
2021/08/31 03:27:41;;;;;;;16.88;11.20;;;13.90;99.90;;;;;;4995067;28;20121;-89
2021/08/31 03:30:09;;;;;;;16.77;10.43;;;14.10;99.90;;;;;;5018752;28;20093;-88
2021/08/31 03:32:39;;;;;;;17.02;11.32;;;13.90;99.90;;;;;;5023611;28;20022;-88
2021/08/31 03:35:05;;;;;;;16.17;10.75;;;15.10;99.90;;;;;;5022866;28;20033;-88
2021/08/31 03:37:30;;;;;;;18.48;11.02;;;13.90;99.90;;;;;;5007648;28;20025;-88
2021/08/31 03:39:59;;;;;;;18.10;11.10;;;14.40;99.90;;;;;;5027760;28;20018;-89
2021/08/31 03:42:25;;;;;;;17.33;10.95;;;13.90;99.90;;;;;;5030569;28;20046;-89
2021/08/31 03:44:51;;;;;;;16.48;10.70;;;13.90;99.90;;;;;;5030768;28;20018;-88
2021/08/31 03:47:16;;;;;;;15.90;10.55;;;13.90;99.90;;;;;;5025310;28;20025;-88
2021/08/31 03:49:45;;;;;;;17.13;10.50;;;14.10;99.90;;;;;;5006882;28;20395;-88
2021/08/31 03:52:11;;;;;;;18.30;10.95;;;13.90;99.90;;;;;;5005921;28;20038;-89
2021/08/31 03:54:36;;;;;;;16.80;10.60;;;13.80;99.90;;;;;;5004823;28;20402;-87
2021/08/31 03:57:02;;;;;;;16.50;10.45;;;14.00;99.90;;;;;;5005619;28;20031;-88
2021/08/31 03:59:28;;;;;;;17.50;11.07;;;13.90;99.90;;;;;;5004701;28;20042;-88
2021/08/31 04:01:54;;;;;;;18.05;11.50;;;13.70;99.90;;;;;;4987606;28;20034;-88
2021/08/31 04:04:22;;;;;;;17.73;11.45;;;14.30;99.90;;;;;;5004763;28;20021;-88
2021/08/31 04:06:47;;;;;;;17.33;10.98;;;14.20;99.90;;;;;;4995247;28;20143;-89
2021/08/31 04:09:13;;;;;;;19.00;11.43;;;14.20;99.90;;;;;;5023376;28;20470;-89
2021/08/31 04:11:39;;;;;;;22.10;12.27;;;13.90;99.90;;;;;;5022429;28;20033;-87
2021/08/31 04:14:05;;;;;;;21.13;11.70;;;14.60;99.90;;;;;;5002540;28;20495;-88
2021/08/31 04:16:30;;;;;;;19.00;12.27;;;13.90;99.90;;;;;;5004939;28;20026;-89
2021/08/31 04:18:56;;;;;;;18.10;11.88;;;14.10;99.90;;;;;;4987529;28;20031;-88
2021/08/31 04:21:25;;;;;;;18.98;11.95;;;13.90;99.90;;;;;;4989657;28;20490;-88
2021/08/31 04:23:53;;;;;;;22.85;12.20;;;13.80;99.90;;;;;;5006461;28;20030;-88
2021/08/31 04:26:19;;;;;;;16.70;10.43;;;13.80;99.90;;;;;;5005686;28;20078;-89
2021/08/31 04:28:45;;;;;;;18.60;11.52;;;13.70;99.90;;;;;;5011474;28;20965;-89
2021/08/31 04:31:13;;;;;;;19.90;11.55;;;13.80;99.90;;;;;;5011746;28;20630;-88
2021/08/31 04:33:39;;;;;;;19.70;11.70;;;13.80;99.90;;;;;;5005204;28;20084;-88
2021/08/31 04:36:04;;;;;;;18.45;11.18;;;13.90;99.90;;;;;;5005001;28;20090;-88
2021/08/31 04:38:35;;;;;;;18.45;11.38;;;13.90;99.90;;;;;;5005258;28;20037;-89
2021/08/31 04:41:00;;;;;;;18.58;11.38;;;13.70;99.90;;;;;;5007154;28;20030;-88
2021/08/31 04:43:27;;;;;;;17.30;11.10;;;13.90;99.90;;;;;;4988735;28;20034;-89
2021/08/31 04:45:52;;;;;;;19.70;11.68;;;14.30;99.90;;;;;;4989436;28;20050;-87
2021/08/31 04:48:21;;;;;;;19.75;11.77;;;13.60;99.90;;;;;;5006413;28;20029;-88
2021/08/31 04:50:50;;;;;;;19.15;11.82;;;13.90;99.90;;;;;;4988754;28;20160;-88
2021/08/31 04:53:16;;;;;;;20.95;12.43;;;13.90;99.90;;;;;;5005754;28;20050;-88
2021/08/31 04:55:48;;;;;;;19.52;12.18;;;13.80;99.90;;;;;;5006293;28;20022;-89
2021/08/31 04:58:13;;;;;;;17.63;11.63;;;14.30;99.90;;;;;;5015617;28;20040;-89
2021/08/31 05:00:39;;;;;;;17.23;11.02;;;13.90;99.90;;;;;;5025570;28;20089;-89
2021/08/31 05:03:04;;;;;;;17.85;11.10;;;13.90;99.90;;;;;;5026295;28;20026;-88
2021/08/31 05:05:30;;;;;;;17.23;10.80;;;14.00;99.90;;;;;;5025125;28;20017;-88
2021/08/31 05:08:01;;;;;;;16.13;9.60;;;13.70;99.90;;;;;;5007041;28;20058;-87
2021/08/31 05:10:27;;;;;;;17.23;11.43;;;13.90;99.90;;;;;;4990662;28;20030;-89
2021/08/31 05:12:53;;;;;;;17.85;11.02;;;13.90;99.90;;;;;;5006821;28;20035;-90
2021/08/31 05:15:19;;;;;;;18.05;11.45;;;13.90;99.90;;;;;;5007120;28;20034;-88
2021/08/31 05:17:45;;;;;;;19.33;11.98;;;13.90;99.90;;;;;;5008030;28;20044;-88
2021/08/31 05:20:11;;;;;;;21.95;12.50;;;13.90;99.90;;;;;;4990261;28;20483;-88
2021/08/31 05:22:37;;;;;;;19.05;11.98;;;13.90;99.90;;;;;;5001433;28;20049;-88
2021/08/31 05:25:04;;;;;;;20.48;12.82;;;13.80;99.90;;;;;;4993142;28;20037;-88
2021/08/31 05:27:30;;;;;;;21.05;12.77;;;14.00;99.90;;;;;;4995125;28;20026;-88
2021/08/31 05:29:57;;;;;;;17.95;11.93;;;13.90;99.90;;;;;;5012886;28;20030;-88
2021/08/31 05:32:23;;;;;;;20.08;12.13;;;13.90;99.90;;;;;;5014700;28;20096;-89
2021/08/31 05:34:49;;;;;;;21.95;12.73;;;14.10;99.90;;;;;;5014809;28;20030;-89
2021/08/31 05:37:15;;;;;;;19.15;11.52;;;13.90;99.90;;;;;;5013671;28;20029;-90
2021/08/31 05:39:40;;;;;;;17.75;12.05;;;13.90;99.90;;;;;;5014155;28;20398;-89
2021/08/31 05:42:08;;;;;;;18.52;12.20;;;13.90;99.90;;;;;;5014002;28;20033;-88
2021/08/31 05:44:35;;;;;;;20.42;13.27;;;13.90;99.90;;;;;;5013730;28;20104;-89
2021/08/31 05:47:03;;;;;;;20.52;12.90;;;14.00;99.90;;;;;;5012346;28;20100;-89
2021/08/31 05:49:30;;;;;;;20.67;12.05;;;13.90;99.90;;;;;;5032962;23;20490;-80
2021/08/31 05:51:59;;;;;;;18.48;11.50;;;14.00;99.90;;;;;;5017605;28;20034;-80
2021/08/31 05:54:26;;;;;;;17.45;12.35;;;14.00;99.90;;;;;;5003324;28;20017;-82
2021/08/31 05:56:52;;;;;;;18.65;12.02;;;14.00;99.90;;;;;;4992848;28;20026;-81
2021/08/31 05:59:18;;;;;;;22.25;11.85;;;14.00;99.90;;;;;;5008762;28;20025;-82
2021/08/31 06:01:44;;;;;;;17.50;10.90;;;14.00;99.90;;;;;;5000321;28;20112;-81
2021/08/31 06:04:11;;;;;;;17.88;11.63;;;14.10;99.90;;;;;;4998945;28;20041;-81
2021/08/31 06:06:37;;;;;;;18.60;11.10;;;14.10;99.90;;;;;;4990436;28;20026;-82
2021/08/31 06:09:04;;;;;;;16.67;11.02;;;14.10;99.90;;;;;;4996319;28;20027;-82
2021/08/31 06:11:32;;;;;;;17.52;11.25;;;14.10;99.90;;;;;;5007603;28;20026;-82
2021/08/31 06:13:58;;;;;;;16.13;10.63;;;14.10;99.90;;;;;;5002691;28;20030;-82
2021/08/31 06:16:23;;;;;;;19.90;11.98;;;14.10;99.90;;;;;;5013570;28;20030;-82
2021/08/31 06:18:49;;;;;;;18.13;11.45;;;14.10;99.90;;;;;;4998256;28;20034;-82
2021/08/31 06:21:14;;;;;;;17.70;10.90;;;14.10;99.90;;;;;;5016295;28;20087;-82
2021/08/31 06:23:40;;;;;;;15.75;11.13;;;14.10;99.90;;;;;;4998674;28;20068;-82
2021/08/31 06:26:05;;;;;;;17.63;11.43;;;14.10;99.90;;;;;;5015783;28;20029;-82
2021/08/31 06:28:32;;;;;;;17.27;10.48;;;14.10;99.90;;;;;;5016078;28;20056;-82
2021/08/31 06:30:58;;;;;;;16.30;10.85;;;14.00;99.90;;;;;;5016687;28;20192;-82
2021/08/31 06:33:23;;;;;;;16.88;10.45;;;14.00;99.90;;;;;;5016149;28;20481;-82
2021/08/31 06:35:49;;;;;;;18.70;10.65;;;14.00;99.90;;;;;;4996768;28;20038;-82
2021/08/31 06:38:15;;;;;;;18.52;10.90;;;14.10;99.90;;;;;;4996703;28;20110;-81
2021/08/31 06:40:40;;;;;;;20.05;10.60;;;14.10;99.90;;;;;;4995990;28;20022;-82
2021/08/31 06:43:06;;;;;;;15.68;10.35;;;14.20;99.90;;;;;;5010812;28;20046;-82
2021/08/31 06:45:32;;;;;;;18.90;10.68;;;14.20;99.90;;;;;;5016260;28;20037;-81
2021/08/31 06:47:57;;;;;;;18.45;10.80;;;14.30;99.90;;;;;;5015807;28;20391;-82
2021/08/31 06:50:23;;;;;;;13.75;9.82;;;14.40;99.90;;;;;;5015462;28;20382;-81
2021/08/31 06:52:48;;;;;;;16.33;9.50;;;14.40;99.90;;;;;;5016373;28;20494;-82
2021/08/31 06:55:15;;;;;;;13.98;9.50;;;14.40;99.90;;;;;;5016783;28;20033;-82
2021/08/31 06:57:41;;;;;;;14.60;9.00;;;14.70;99.90;;;;;;5019754;28;20022;-82
2021/08/31 07:00:08;;;;;;;14.27;9.10;;;14.70;99.90;;;;;;5012965;28;20045;-82
2021/08/31 07:02:33;;;;;;;14.18;9.23;;;14.80;99.90;;;;;;5000440;28;20018;-81
2021/08/31 07:04:59;;;;;;;14.80;9.73;;;14.80;99.90;;;;;;4986231;28;20553;-82
2021/08/31 07:07:25;;;;;;;16.23;9.32;;;14.90;99.90;;;;;;4995799;28;20049;-83
2021/08/31 07:09:50;;;;;;;15.77;9.55;;;14.90;99.90;;;;;;5012169;28;20030;-82
2021/08/31 07:12:16;;;;;;;14.50;8.38;;;14.90;99.90;;;;;;4999902;28;20037;-81
2021/08/31 07:14:42;;;;;;;14.07;9.02;;;14.90;99.90;;;;;;5000999;28;20042;-81
2021/08/31 07:17:07;;;;;;;15.80;8.98;;;14.90;99.90;;;;;;5006903;28;20049;-81
2021/08/31 07:19:33;;;;;;;14.70;8.60;;;14.90;99.90;;;;;;5017296;28;20034;-82
2021/08/31 07:21:59;;;;;;;14.40;8.38;;;14.90;99.90;;;;;;5022763;28;20018;-81
2021/08/31 07:24:24;;;;;;;14.25;8.70;;;14.90;99.90;;;;;;5022066;28;20029;-82
2021/08/31 07:26:50;;;;;;;12.93;8.95;;;14.90;99.90;;;;;;5002145;28;20084;-82
2021/08/31 07:29:16;;;;;;;13.38;9.30;;;14.90;99.90;;;;;;5017851;28;20613;-81
2021/08/31 07:31:42;;;;;;;15.40;8.70;;;14.90;99.90;;;;;;5016808;28;20068;-83
2021/08/31 07:34:07;;;;;;;15.10;8.88;;;14.90;99.90;;;;;;5015455;28;20034;-82
2021/08/31 07:36:33;;;;;;;13.93;8.95;;;15.00;99.90;;;;;;4998157;28;20030;-82
2021/08/31 07:38:59;;;;;;;13.13;8.63;;;14.90;99.90;;;;;;4998506;28;20536;-82
2021/08/31 07:41:25;;;;;;;13.32;8.40;;;15.00;99.90;;;;;;5014774;28;20026;-82
2021/08/31 07:43:51;;;;;;;14.10;8.77;;;15.00;99.90;;;;;;5015288;28;20401;-82
2021/08/31 07:46:18;;;;;;;14.32;8.07;;;15.10;99.90;;;;;;4998678;28;20030;-82
2021/08/31 07:48:44;;;;;;;11.57;7.43;;;15.20;99.90;;;;;;4997623;28;20120;-82
2021/08/31 07:51:09;;;;;;;11.85;7.82;;;15.20;99.90;;;;;;5015645;28;20054;-82
2021/08/31 07:53:35;;;;;;;11.43;7.22;;;15.20;99.90;;;;;;5015819;28;20037;-82
2021/08/31 07:56:01;;;;;;;10.63;7.15;;;15.40;99.90;;;;;;5016035;28;20026;-82
2021/08/31 07:58:27;;;;;;;11.93;7.60;;;15.30;99.90;;;;;;5015012;28;20034;-81
2021/08/31 08:00:53;;;;;;;10.77;7.07;;;15.30;99.90;;;;;;5014366;28;20030;-83
2021/08/31 08:03:18;;;;;;;12.45;7.53;;;15.20;99.90;;;;;;5015458;28;20033;-83
2021/08/31 08:05:44;;;;;;;12.18;7.82;;;15.30;99.90;;;;;;5015368;28;20105;-83
2021/08/31 08:08:09;;;;;;;15.68;8.00;;;15.30;99.90;;;;;;5015292;28;20088;-82
2021/08/31 08:10:35;;;;;;;11.30;7.65;;;15.20;99.90;;;;;;5015706;28;20155;-82
2021/08/31 08:13:01;;;;;;;12.32;7.38;;;15.30;99.90;;;;;;5014291;28;20033;-83
2021/08/31 08:15:26;;;;;;;10.65;6.55;;;15.30;99.90;;;;;;5015427;28;20034;-83
2021/08/31 08:17:52;;;;;;;10.45;6.63;;;15.40;99.90;;;;;;4996594;28;20490;-83
2021/08/31 08:20:17;;;;;;;9.98;6.63;;;15.40;99.90;;;;;;5013589;28;20117;-82
2021/08/31 08:22:44;;;;;;;9.75;6.22;;;15.50;99.90;;;;;;5018588;28;20418;-83
2021/08/31 08:25:11;;;;;;;10.30;7.03;;;15.60;99.90;;;;;;5023571;28;20105;-82
2021/08/31 08:27:36;;;;;;;11.18;5.72;;;15.60;99.90;;;;;;5025227;28;20041;-81
2021/08/31 08:30:03;;;;;;;14.68;6.45;;;15.70;99.90;;;;;;5023648;28;20038;-80
2021/08/31 08:32:28;;;;;;;10.45;7.22;;;15.70;99.90;;;;;;5020954;28;20042;-84
2021/08/31 08:34:54;;;;;;;10.02;6.88;;;15.80;99.90;;;;;;5020619;28;20045;-83
2021/08/31 08:37:20;;;;;;;10.60;6.20;;;15.80;99.90;;;;;;5019258;28;20041;-83
2021/08/31 08:39:45;;;;;;;10.60;6.50;;;15.90;99.90;;;;;;5019147;28;20053;-84
2021/08/31 08:42:12;;;;;;;9.55;6.30;;;15.90;99.90;;;;;;5002321;28;20029;-83
2021/08/31 08:44:37;;;;;;;8.13;5.70;;;15.90;99.90;;;;;;5018977;28;20022;-84
2021/08/31 08:47:04;;;;;;;8.55;6.07;;;16.00;99.90;;;;;;5020400;28;20037;-83
2021/08/31 08:49:30;;;;;;;8.13;5.35;;;16.00;99.90;;;;;;5019164;28;20068;-83
2021/08/31 08:51:58;;;;;;;8.30;5.70;;;16.10;99.90;;;;;;5019734;28;20030;-84
2021/08/31 08:54:24;;;;;;;9.85;6.03;;;16.20;99.90;;;;;;5021952;28;20048;-83
2021/08/31 08:56:51;;;;;;;8.82;5.50;;;16.20;99.90;;;;;;5024720;28;20108;-83
2021/08/31 08:59:20;;;;;;;9.70;5.82;;;16.20;99.90;;;;;;5022221;28;20445;-83
2021/08/31 09:01:50;;;;;;;8.65;5.90;;;16.30;99.90;;;;;;5021620;28;20475;-84
2021/08/31 09:04:18;;;;;;;10.52;5.90;;;16.30;99.90;;;;;;5020807;28;20026;-83
2021/08/31 09:06:45;;;;;;;9.63;5.78;;;16.40;99.90;;;;;;5020306;28;20018;-83
2021/08/31 09:09:11;;;;;;;8.02;5.38;;;16.40;99.90;;;;;;5002218;28;20024;-84
2021/08/31 09:11:46;;;;;;;9.38;5.40;;;16.40;99.90;;;;;;5002360;28;20029;-82
2021/08/31 09:14:17;;;;;;;8.85;5.47;;;16.50;99.90;;;;;;5002987;28;20116;-83
2021/08/31 09:16:44;;;;;;;;;;;16.50;99.90;;;;;;5002663;28;20032;-83
2021/08/31 09:19:11;;;;;;;10.13;5.35;;;16.60;99.90;;;;;;5019012;28;19920;-82
2021/08/31 09:21:37;;;;;;;9.48;5.93;;;16.70;99.90;;;;;;5002405;28;20033;-83
2021/08/31 09:24:03;;;;;;;10.40;5.68;;;16.70;99.90;;;;;;5004684;28;20018;-83
2021/08/31 09:26:45;;;;;;;10.00;5.25;;;16.70;99.90;;;;;;5002736;28;20041;-83
2021/08/31 09:29:12;;;;;;;9.90;5.30;;;16.80;99.90;;;;;;5017759;28;20033;-83
2021/08/31 09:31:50;;;;;;;6.85;4.45;;;16.80;99.90;;;;;;5019514;28;20041;-83
2021/08/31 09:34:45;;;;;;;7.63;5.25;;;16.90;99.90;;;;;;5019244;28;20040;-82
2021/08/31 09:37:31;;;;;;;8.27;4.82;;;17.10;99.90;;;;;;4999621;28;20688;-83
2021/08/31 09:40:03;;;;;;;7.88;4.20;;;17.10;99.90;;;;;;5018876;28;20068;-83
2021/08/31 09:42:29;;;;;;;9.63;4.35;;;17.10;99.90;;;;;;5001151;28;20117;-83
2021/08/31 09:45:06;;;;;;;7.63;4.43;;;17.10;99.90;;;;;;5016951;28;20042;-82
2021/08/31 09:47:35;;;;;;;8.32;4.35;;;17.20;99.90;;;;;;5017890;28;20032;-82
2021/08/31 09:50:02;;;;;;;6.82;4.22;;;17.30;99.90;;;;;;5016477;28;20205;-82
2021/08/31 09:52:28;;;;;;;8.38;4.65;;;17.40;99.90;;;;;;5018410;28;20080;-83
2021/08/31 09:54:54;;;;;;;11.65;4.82;;;17.30;99.90;;;;;;5017584;28;20034;-82
2021/08/31 09:57:37;;;;;;;8.18;4.57;;;17.50;99.90;;;;;;5000619;28;20033;-83
2021/08/31 10:00:08;;;;;;;7.30;4.68;;;17.40;99.90;;;;;;5017673;28;20030;-81
2021/08/31 10:02:34;;;;;;;;;;;17.50;99.90;;;;;;5018654;28;20050;-81
2021/08/31 10:05:00;;;;;;;6.25;3.72;;;17.50;99.90;;;;;;5000334;28;19909;-83
2021/08/31 10:07:26;;;;;;;10.43;3.88;;;17.60;99.90;;;;;;5017642;28;20430;-83
2021/08/31 10:09:53;;;;;;;7.03;4.13;;;17.70;99.90;;;;;;4999746;28;20038;-82
2021/08/31 10:12:22;;;;;;;6.85;3.55;;;17.80;99.90;;;;;;5016615;28;20156;-82
2021/08/31 10:14:52;;;;;;;6.75;4.18;;;17.90;99.90;;;;;;5017871;28;20080;-82
2021/08/31 10:17:22;;;;;;;6.88;4.30;;;17.80;99.90;;;;;;5000091;28;20030;-82
2021/08/31 10:19:50;;;;;;;9.68;4.25;;;17.80;99.90;;;;;;5016594;28;20528;-82
2021/08/31 10:22:16;;;;;;;7.93;4.20;;;17.80;99.90;;;;;;5016958;28;20033;-82
2021/08/31 10:24:43;;;;;;;6.95;4.30;;;17.70;99.90;;;;;;5017415;28;20122;-83
2021/08/31 10:27:42;;;;;;;7.80;4.70;;;17.80;99.90;;;;;;5017134;28;20105;-82
2021/08/31 10:30:19;;;;;;;7.38;4.03;;;17.80;99.90;;;;;;4973685;28;20042;-81
2021/08/31 10:32:49;;;;;;;6.38;3.92;;;17.80;99.90;;;;;;4997544;28;20032;-82
2021/08/31 10:35:44;;;;;;;6.93;3.75;;;17.70;99.90;;;;;;4997885;28;20026;-81
2021/08/31 10:38:12;;;;;;;8.18;4.28;;;17.60;99.90;;;;;;4981648;28;20042;-81
2021/08/31 10:40:38;;;;;;;6.25;3.97;;;17.60;99.90;;;;;;5016465;28;20055;-82
2021/08/31 10:43:06;;;;;;;6.43;4.00;;;17.70;99.90;;;;;;5016611;28;20093;-82
2021/08/31 10:45:37;;;;;;;6.95;4.25;;;17.70;99.90;;;;;;5016554;28;20022;-82
2021/08/31 10:48:22;;;;;;;7.67;4.63;;;17.70;99.90;;;;;;4995616;28;20101;-82
2021/08/31 10:51:11;;;;;;;7.15;3.72;;;17.80;99.90;;;;;;4998953;28;20042;-81
2021/08/31 10:53:45;;;;;;;7.38;3.63;;;17.80;99.90;;;;;;4998262;28;20023;-82
2021/08/31 10:56:23;;;;;;;6.50;3.78;;;17.80;99.90;;;;;;4998237;28;20030;-82
2021/08/31 10:58:52;;;;;;;7.90;3.53;;;17.90;99.90;;;;;;5014364;28;20109;-83
2021/08/31 11:01:19;;;;;;;6.50;3.78;;;17.90;99.90;;;;;;5000524;28;20072;-83
2021/08/31 11:03:47;;;;;;;6.45;3.50;;;18.00;99.90;;;;;;5018178;28;20022;-83
2021/08/31 11:06:25;;;;;;;7.35;3.72;;;18.00;99.90;;;;;;5017443;28;20125;-82
2021/08/31 11:09:10;;;;;;;8.95;3.58;;;18.00;99.90;;;;;;5017168;28;20041;-82
2021/08/31 11:11:36;;;;;;;7.18;3.53;;;18.10;99.90;;;;;;5018457;28;20109;-82
2021/08/31 11:14:02;;;;;;;6.40;3.60;;;18.10;99.90;;;;;;5018280;28;20022;-83
2021/08/31 11:16:31;;;;;;;7.72;3.72;;;18.20;99.90;;;;;;5016296;28;20057;-82
2021/08/31 11:18:57;;;;;;;5.47;2.97;;;18.20;99.90;;;;;;5015032;28;20022;-82
2021/08/31 11:21:23;;;;;;;6.38;3.70;;;18.20;99.90;;;;;;5013205;28;20041;-82
2021/08/31 11:23:49;;;;;;;6.72;3.42;;;18.20;99.90;;;;;;4995823;28;20398;-83
2021/08/31 11:26:25;;;;;;;7.75;3.33;;;18.30;99.90;;;;;;4997798;28;20092;-82
2021/08/31 11:28:52;;;;;;;5.95;3.40;;;18.20;99.90;;;;;;5016638;28;20026;-82
2021/08/31 11:31:27;;;;;;;6.32;3.50;;;18.30;99.90;;;;;;5016792;28;20109;-82
2021/08/31 11:33:54;;;;;;;6.30;3.33;;;18.30;99.90;;;;;;5011537;28;20023;-82
2021/08/31 11:36:23;;;;;;;6.75;3.20;;;18.20;99.90;;;;;;4997483;28;20026;-82
2021/08/31 11:38:54;;;;;;;5.85;3.13;;;18.10;99.90;;;;;;4996894;28;20062;-81
2021/08/31 11:41:26;;;;;;;5.13;2.83;;;18.20;99.90;;;;;;4978979;28;20057;-82
2021/08/31 11:43:56;;;;;;;6.20;3.28;;;18.20;99.90;;;;;;5012279;28;20026;-83
2021/08/31 11:46:25;;;;;;;7.03;3.47;;;18.30;99.90;;;;;;4999940;28;20467;-82
2021/08/31 11:49:10;;;;;;;6.70;3.90;;;18.30;99.90;;;;;;5019388;28;20030;-82
2021/08/31 11:51:37;;;;;;;5.85;3.33;;;18.40;99.90;;;;;;5012036;28;20088;-82
2021/08/31 11:54:07;;;;;;;6.20;3.78;;;18.40;99.90;;;;;;5018243;28;20072;-82
2021/08/31 11:56:34;;;;;;;8.93;4.10;;;18.50;99.90;;;;;;5017881;28;20030;-82
2021/08/31 11:59:00;;;;;;;7.93;4.60;;;18.50;99.90;;;;;;5011133;23;20043;-90
2021/08/31 12:02:00;;;;;;;6.68;4.30;;;18.50;99.90;;;;;;4999416;28;20034;-90
2021/08/31 12:04:26;;;;;;;5.93;3.90;;;18.40;99.90;;;;;;4993510;28;20024;-90
2021/08/31 12:06:57;;;;;;;6.40;3.90;;;18.20;99.90;;;;;;4973608;28;20539;-91
2021/08/31 12:09:25;;;;;;;8.02;5.03;;;18.60;99.90;;;;;;4989387;28;20073;-90
2021/08/31 12:11:51;;;;;;;7.75;4.18;;;18.60;99.90;;;;;;4993897;28;20033;-89
2021/08/31 12:14:18;;;;;;;8.80;4.55;;;18.60;99.90;;;;;;4976587;28;20034;-90
2021/08/31 12:16:49;;;;;;;7.18;4.38;;;18.70;99.90;;;;;;4966357;28;20050;-91
2021/08/31 12:19:22;;;;;;;8.57;3.97;;;18.80;99.90;;;;;;4976503;28;20030;-90
2021/08/31 12:22:11;;;;;;;6.50;3.65;;;19.00;99.90;;;;;;4976872;28;20519;-90
2021/08/31 12:24:56;;;;;;;5.65;3.55;;;18.90;99.90;;;;;;4971025;28;20019;-90
2021/08/31 12:27:22;;;;;;;6.18;4.20;;;19.00;99.90;;;;;;4975903;28;20030;-90
2021/08/31 12:29:55;;;;;;;8.23;3.75;;;19.00;99.90;;;;;;4975401;28;20156;-90
2021/08/31 12:32:27;;;;;;;6.40;3.97;;;19.10;99.90;;;;;;4976041;28;20019;-92
2021/08/31 12:34:54;;;;;;;7.95;3.70;;;19.30;99.90;;;;;;4967549;28;20392;-90
2021/08/31 12:37:50;;;;;;;7.47;4.10;;;19.90;99.90;;;;;;4956456;28;20035;-90
2021/08/31 12:40:19;;;;;;;8.40;3.90;;;19.70;99.90;;;;;;4954441;28;20035;-90